createdAt,value
2022-11-24T00:02:21.598Z,100317.11
2022-11-24T00:04:51.909Z,100318.02
2022-11-24T00:07:21.811Z,100315.23
2022-11-24T00:09:51.658Z,100318.11
2022-11-24T00:12:22.069Z,100313.27
2022-11-24T00:14:51.981Z,100314.59
2022-11-24T00:17:21.798Z,100314.02
2022-11-24T00:19:50.320Z,100319.98
2022-11-24T00:22:18.594Z,100320.23
2022-11-24T00:24:47.211Z,100320.52
2022-11-24T00:27:15.461Z,100316.61
2022-11-24T00:29:43.856Z,100314.88
2022-11-24T00:32:12.308Z,100316.00
2022-11-24T00:34:42.092Z,100318.36
2022-11-24T00:37:09.067Z,100322.91
2022-11-24T00:39:37.426Z,100323.81
2022-11-24T00:42:07.958Z,100323.57
2022-11-24T00:44:37.341Z,100317.28
2022-11-24T00:47:06.477Z,100315.20
2022-11-24T00:49:34.121Z,100312.38
2022-11-24T00:52:02.525Z,100321.79
2022-11-24T00:54:31.407Z,100321.82
2022-11-24T00:56:59.335Z,100316.37
2022-11-24T00:59:27.779Z,100313.54
2022-11-24T01:01:57.598Z,100318.91
2022-11-24T01:04:27.373Z,100318.55
2022-11-24T01:06:57.231Z,100322.19
2022-11-24T01:09:27.012Z,100327.66
2022-11-24T01:12:02.659Z,100333.10
2022-11-24T01:14:33.444Z,100341.77
2022-11-24T05:33:48.480Z,100494.55
2022-11-24T05:36:36.906Z,100500.52
2022-11-24T05:39:07.920Z,100500.52
2022-11-24T05:41:37.767Z,100502.96
2022-11-24T05:44:07.725Z,100502.55
2022-11-24T05:46:37.743Z,100506.14
2022-11-24T05:49:07.614Z,100506.93
2022-11-24T05:51:37.535Z,100508.31
2022-11-24T05:54:07.290Z,100509.70
2022-11-24T05:56:37.130Z,100512.14
2022-11-24T05:59:09.931Z,100516.00
2022-11-24T06:01:40.131Z,100518.73
2022-11-24T06:04:10.026Z,100519.21
2022-11-24T06:06:39.894Z,100524.05
2022-11-24T06:09:09.842Z,100523.89
2022-11-24T06:11:39.568Z,100526.52
2022-11-24T06:14:11.523Z,100527.67
2022-11-24T06:16:41.202Z,100530.02
2022-11-24T06:19:11.648Z,100538.66
2022-11-24T06:21:40.872Z,100541.22
2022-11-24T06:24:09.074Z,100544.88
2022-11-24T06:26:37.632Z,100550.23
2022-11-24T06:29:06.682Z,100551.08
2022-11-24T06:31:34.935Z,100555.06
2022-11-24T06:34:07.580Z,100554.69
2022-11-24T06:36:39.228Z,100559.48
2022-11-24T06:39:10.547Z,100566.02
2022-11-24T06:41:40.588Z,100564.20
2022-11-24T06:44:10.476Z,100564.97
2022-11-24T06:46:40.603Z,100563.27
2022-11-24T06:49:10.572Z,100565.36
2022-11-24T06:51:41.137Z,100567.40
2022-11-24T06:54:17.583Z,100571.36
2022-11-24T06:56:48.102Z,100572.56
2022-11-24T06:59:20.535Z,100570.83
2022-11-24T07:01:49.770Z,100578.68
2022-11-24T07:04:17.863Z,100586.73
2022-11-24T07:06:46.654Z,100586.66
2022-11-24T07:09:14.843Z,100585.96
2022-11-24T07:11:43.429Z,100586.64
2022-11-24T07:14:11.642Z,100584.14
2022-11-24T07:16:40.618Z,100583.41
2022-11-24T07:19:10.305Z,100588.13
2022-11-24T07:21:40.244Z,100584.30
2022-11-24T07:24:10.153Z,100584.67
2022-11-24T07:26:40.329Z,100584.73
2022-11-24T07:29:10.138Z,100586.52
2022-11-24T07:31:40.247Z,100591.55
2022-11-24T07:34:10.199Z,100598.45
2022-11-24T07:36:40.186Z,100603.02
2022-11-24T07:39:09.958Z,100606.50
2022-11-24T07:41:39.776Z,100605.45
2022-11-24T07:44:09.656Z,100615.95
2022-11-24T07:46:39.498Z,100615.98
2022-11-24T07:49:09.574Z,100619.63
2022-11-24T07:51:39.430Z,100618.36
2022-11-24T07:54:09.807Z,100624.85
2022-11-24T07:56:39.741Z,100624.33
2022-11-24T07:59:09.468Z,100623.38
2022-11-24T08:01:39.366Z,100622.91
2022-11-24T08:04:09.222Z,100628.66
2022-11-24T08:06:43.293Z,100631.96
2022-11-24T08:09:16.772Z,100632.67
2022-11-24T08:11:46.568Z,100630.16
2022-11-24T08:14:16.318Z,100626.98
2022-11-24T08:16:46.170Z,100625.27
2022-11-24T08:19:15.851Z,100630.18
2022-11-24T08:21:45.797Z,100633.50
2022-11-24T08:24:17.012Z,100628.71
2022-11-24T08:26:46.848Z,100626.80
2022-11-24T08:29:16.780Z,100631.70
2022-11-24T08:31:47.020Z,100631.27
2022-11-24T08:34:16.871Z,100631.77
2022-11-24T08:36:46.595Z,100630.58
2022-11-24T08:39:16.480Z,100634.11
2022-11-24T08:41:46.816Z,100635.92
2022-11-24T08:44:18.286Z,100632.38
2022-11-24T08:46:48.433Z,100633.02
2022-11-24T08:49:18.940Z,100631.67
2022-11-24T08:51:51.189Z,100635.46
2022-11-24T08:54:21.725Z,100637.47
2022-11-24T08:56:51.337Z,100637.16
2022-11-24T08:59:21.233Z,100641.08
2022-11-24T09:01:51.207Z,100641.48
2022-11-24T09:04:21.127Z,100646.33
2022-11-24T09:06:50.994Z,100658.93
2022-11-24T09:09:20.842Z,100664.01
2022-11-24T09:11:50.600Z,100662.90
2022-11-24T09:14:17.771Z,100661.17
2022-11-24T09:16:44.854Z,100664.63
2022-11-24T09:19:15.150Z,100666.48
2022-11-24T09:21:44.934Z,100666.59
2022-11-24T09:24:16.617Z,100666.32
2022-11-24T09:26:47.786Z,100672.50
2022-11-24T09:29:15.841Z,100673.23
2022-11-24T09:31:45.807Z,100675.30
2022-11-24T09:34:16.773Z,100673.25
2022-11-24T09:36:46.073Z,100682.00
2022-11-24T09:39:15.978Z,100680.41
2022-11-24T09:42:14.420Z,100683.52
2022-11-24T09:46:04.452Z,100684.45
2022-11-24T09:48:50.428Z,100682.21
2022-11-24T09:51:25.666Z,100680.24
2022-11-24T09:54:06.039Z,100675.02
2022-11-24T09:56:40.627Z,100674.46
2022-11-24T09:59:23.527Z,100680.83
2022-11-24T10:01:53.171Z,100683.56
2022-11-24T10:04:29.662Z,100686.13
2022-11-24T10:07:27.819Z,100685.58
2022-11-24T10:10:25.937Z,100695.48
2022-11-24T10:13:08.192Z,100697.40
2022-11-24T10:16:04.165Z,100701.70
2022-11-24T10:19:13.046Z,100698.55
2022-11-24T10:22:10.405Z,100701.30
2022-11-24T10:25:18.001Z,100698.11
2022-11-24T10:27:57.301Z,100701.92
2022-11-24T10:30:28.142Z,100705.26
2022-11-24T10:33:05.989Z,100708.52
2022-11-24T10:35:47.487Z,100705.52
2022-11-24T10:38:20.209Z,100704.48
2022-11-24T10:41:14.473Z,100696.06
2022-11-24T10:43:44.501Z,100686.10
2022-11-24T10:46:27.049Z,100686.42
2022-11-24T10:49:03.075Z,100690.23
2022-11-24T10:52:05.705Z,100694.52
2022-11-24T10:54:36.175Z,100694.16
2022-11-24T10:57:05.944Z,100692.68
2022-11-24T10:59:40.280Z,100683.09
2022-11-24T11:02:36.111Z,100691.49
2022-11-24T11:05:42.516Z,100706.08
2022-11-24T11:08:29.283Z,100719.79
2022-11-24T11:11:31.002Z,100720.44
2022-11-24T11:14:04.956Z,100713.42
2022-11-24T11:16:51.830Z,100706.95
2022-11-24T11:19:56.904Z,100705.09
2022-11-24T11:22:32.019Z,100702.73
2022-11-24T11:25:16.200Z,100700.90
2022-11-24T11:27:43.935Z,100698.15
2022-11-24T11:36:16.850Z,100697.92
2022-11-24T11:38:47.017Z,100697.41
2022-11-24T11:41:45.171Z,100694.29
2022-11-24T11:44:47.047Z,100697.00
2022-11-24T11:47:48.004Z,100691.13
2022-11-24T11:50:27.504Z,100692.34
2022-11-24T11:53:17.923Z,100695.19
2022-11-24T11:56:34.925Z,100699.08
2022-11-24T11:59:26.533Z,100701.86
2022-11-24T12:02:26.951Z,100706.91
2022-11-24T12:05:20.406Z,100716.29
2022-11-24T12:08:20.479Z,100717.40
2022-11-24T12:11:13.830Z,100719.10
2022-11-24T12:14:15.765Z,100717.79
2022-11-24T12:17:03.189Z,100719.64
2022-11-24T12:19:48.395Z,100717.15
2022-11-24T12:22:36.367Z,100707.89
2022-11-24T12:25:29.383Z,100706.36
2022-11-24T12:28:33.490Z,100703.45
2022-11-24T12:31:27.969Z,100704.33
2022-11-24T12:34:54.513Z,100705.00
2022-11-24T12:37:58.780Z,100703.30
2022-11-24T12:44:00.914Z,100707.70
2022-11-24T12:47:18.234Z,100707.65
2022-11-24T12:50:15.852Z,100713.02
2022-11-24T12:53:02.969Z,100714.46
2022-11-24T12:55:34.131Z,100709.49
2022-11-24T12:58:32.703Z,100706.94
2022-11-24T13:01:39.305Z,100710.66
2022-11-24T13:04:41.061Z,100719.86
2022-11-24T13:07:18.477Z,100718.81
2022-11-24T13:10:53.624Z,100717.56
2022-11-24T13:13:15.892Z,100714.86
2022-11-24T13:16:34.769Z,100716.36
2022-11-24T13:18:52.508Z,100710.67
2022-11-24T13:21:29.423Z,100725.10
2022-11-24T13:24:06.421Z,100730.09
2022-11-24T13:26:42.078Z,100733.98
2022-11-24T13:29:36.359Z,100736.36
2022-11-24T13:32:05.943Z,100745.84
2022-11-24T13:34:38.863Z,100744.73
2022-11-24T13:37:34.649Z,100743.27
2022-11-24T13:40:11.557Z,100745.11
2022-11-24T13:42:57.327Z,100748.74
2022-11-24T13:45:39.220Z,100757.67
2022-11-24T13:48:21.494Z,100770.75
2022-11-24T13:50:53.269Z,100776.01
2022-11-24T13:53:47.569Z,100781.04
2022-11-24T13:56:16.599Z,100782.52
2022-11-24T13:58:59.639Z,100780.23
2022-11-24T14:01:36.019Z,100790.36
2022-11-24T14:04:32.011Z,100782.83
2022-11-24T14:07:15.368Z,100789.81
2022-11-24T14:09:52.839Z,100793.75
2022-11-24T14:12:24.747Z,100794.53
2022-11-24T14:15:20.695Z,100797.20
2022-11-24T14:17:50.592Z,100804.69
2022-11-24T14:20:28.191Z,100804.41
2022-11-24T14:22:58.096Z,100806.95
2022-11-24T14:25:32.766Z,100809.55
2022-11-24T14:28:02.850Z,100810.54
2022-11-24T14:30:32.608Z,100814.63
2022-11-24T14:33:04.140Z,100816.16
2022-11-24T14:35:36.463Z,100810.95
2022-11-24T14:38:10.938Z,100814.48
2022-11-24T14:40:43.814Z,100816.01
2022-11-24T14:43:34.596Z,100821.16
2022-11-24T14:46:12.209Z,100825.36
2022-11-24T14:48:53.241Z,100825.05
2022-11-24T14:51:35.774Z,100828.96
2022-11-24T14:54:16.653Z,100828.27
2022-11-24T14:57:04.089Z,100825.71
2022-11-24T14:59:37.994Z,100827.08
2022-11-24T15:02:41.299Z,100830.98
2022-11-24T15:05:11.206Z,100837.02
2022-11-24T15:07:48.844Z,100843.59
2022-11-24T15:10:33.909Z,100849.20
2022-11-24T15:13:22.637Z,100847.45
2022-11-24T15:16:08.163Z,100846.86
2022-11-24T15:18:46.984Z,100847.30
2022-11-24T15:21:19.516Z,100848.64
2022-11-24T15:24:18.124Z,100852.33
2022-11-24T15:26:47.887Z,100854.38
2022-11-24T15:29:17.659Z,100853.70
2022-11-24T15:31:52.418Z,100859.05
2022-11-24T15:34:22.775Z,100856.61
2022-11-24T15:36:52.460Z,100861.27
2022-11-24T15:39:22.221Z,100863.43
2022-11-24T15:41:51.978Z,100860.47
2022-11-24T15:44:21.758Z,100869.58
2022-11-24T15:46:51.597Z,100870.44
2022-11-24T15:49:21.817Z,100875.65
2022-11-24T15:51:51.647Z,100886.13
2022-11-24T15:54:19.901Z,100884.70
2022-11-24T15:56:49.264Z,100882.19
2022-11-24T15:59:21.155Z,100888.35
2022-11-24T16:01:51.363Z,100890.77
2022-11-24T16:04:21.071Z,100892.09
2022-11-24T16:06:50.775Z,100896.14
2022-11-24T16:09:20.590Z,100898.42
2022-11-24T16:11:50.402Z,100905.28
2022-11-24T16:14:20.230Z,100898.00
2022-11-24T16:16:50.422Z,100893.08
2022-11-24T16:19:20.224Z,100898.77
2022-11-24T16:21:50.370Z,100904.13
2022-11-24T16:24:20.081Z,100908.77
2022-11-24T16:26:49.841Z,100907.41
2022-11-24T16:29:20.904Z,100911.17
2022-11-24T16:31:54.120Z,100910.66
2022-11-24T16:34:24.044Z,100917.36
2022-11-24T16:36:53.814Z,100920.75
2022-11-24T16:39:23.484Z,100915.45
2022-11-24T16:41:53.153Z,100915.93
2022-11-24T16:44:22.993Z,100923.70
2022-11-24T16:46:52.767Z,100924.63
2022-11-24T16:49:22.883Z,100924.56
2022-11-24T16:51:52.563Z,100920.17
2022-11-24T16:54:22.529Z,100921.63
2022-11-24T16:56:52.592Z,100921.42
2022-11-24T16:59:22.509Z,100925.70
2022-11-24T17:01:52.413Z,100931.53
2022-11-24T17:04:22.275Z,100933.33
2022-11-24T17:06:52.307Z,100935.23
2022-11-24T17:09:22.137Z,100932.38
2022-11-24T17:11:51.942Z,100932.90
2022-11-24T17:14:20.356Z,100936.60
2022-11-24T17:16:48.735Z,100933.71
2022-11-24T17:19:17.148Z,100935.23
2022-11-24T17:21:46.308Z,100932.83
2022-11-24T17:24:17.441Z,100931.89
2022-11-24T17:26:49.111Z,100936.77
2022-11-24T17:29:19.676Z,100937.15
2022-11-24T17:31:49.179Z,100940.55
2022-11-24T17:34:18.993Z,100938.73
2022-11-24T17:36:48.694Z,100934.33
2022-11-24T17:39:24.592Z,100934.36
2022-11-24T17:41:52.911Z,100934.25
2022-11-24T17:44:20.136Z,100932.98
2022-11-24T17:46:49.954Z,100933.90
2022-11-24T17:49:21.094Z,100933.77
2022-11-24T17:51:50.582Z,100937.92
2022-11-24T17:57:07.257Z,100945.77
2022-11-24T17:59:35.917Z,100943.31
2022-11-24T18:02:04.426Z,100945.16
2022-11-24T18:04:34.755Z,100946.98
2022-11-24T18:07:04.226Z,100948.90
2022-11-24T18:09:32.677Z,100950.44
2022-11-24T18:12:01.177Z,100947.73
2022-11-24T18:14:28.388Z,100943.89
2022-11-24T18:16:55.699Z,100951.96
2022-11-24T18:19:24.216Z,100957.88
2022-11-24T18:21:52.513Z,100964.66
2022-11-24T18:24:24.065Z,100966.63
2022-11-24T18:26:54.421Z,100969.72
2022-11-24T18:29:24.163Z,100972.34
2022-11-24T18:31:54.283Z,100970.89
2022-11-24T18:34:27.082Z,100970.65
2022-11-24T18:36:56.942Z,100971.88
2022-11-24T18:39:28.297Z,100973.39
2022-11-24T18:41:58.001Z,100970.76
2022-11-24T18:44:27.766Z,100975.60
2022-11-24T18:46:57.715Z,100974.16
2022-11-24T18:49:28.004Z,100978.39
2022-11-24T18:51:59.405Z,100982.56
2022-11-24T18:54:29.244Z,100980.52
2022-11-24T18:57:03.104Z,100974.35
2022-11-24T18:59:33.371Z,100974.27
2022-11-24T19:02:03.241Z,100977.60
2022-11-24T19:04:33.446Z,100976.35
2022-11-24T19:07:03.414Z,100974.06
2022-11-24T19:09:33.147Z,100974.36
2022-11-24T19:12:03.196Z,100978.16
2022-11-24T19:14:34.157Z,100980.00
2022-11-24T19:17:05.101Z,100986.18
2022-11-24T19:19:35.970Z,100986.36
2022-11-24T19:22:05.753Z,100985.23
2022-11-24T19:24:36.015Z,100985.92
2022-11-24T19:27:06.015Z,100984.50
2022-11-24T19:29:39.093Z,100982.25
2022-11-24T19:32:12.782Z,100977.13
2022-11-24T19:34:42.545Z,100977.19
2022-11-24T19:37:12.268Z,100981.73
2022-11-24T19:39:41.997Z,100983.71
2022-11-24T19:42:15.255Z,100982.83
2022-11-24T19:44:45.004Z,100990.31
2022-11-24T19:47:14.749Z,100992.92
2022-11-24T19:49:44.545Z,100990.95
2022-11-24T19:52:14.269Z,100991.12
2022-11-24T19:54:44.193Z,100992.52
2022-11-24T19:57:14.019Z,100994.69
2022-11-24T19:59:45.716Z,100996.13
2022-11-24T20:02:15.548Z,101000.11
2022-11-24T20:04:45.436Z,101004.44
2022-11-24T20:07:15.163Z,101009.61
2022-11-24T20:09:45.164Z,101018.26
2022-11-24T20:12:16.411Z,101026.61
2022-11-24T20:14:46.165Z,101028.50
2022-11-24T20:17:15.889Z,101027.27
2022-11-24T20:19:44.396Z,101026.58
2022-11-24T20:22:12.692Z,101027.58
2022-11-24T20:24:41.304Z,101030.03
2022-11-24T20:27:09.580Z,101035.38
2022-11-24T20:29:45.260Z,101036.40
2022-11-24T20:32:19.566Z,101038.63
2022-11-24T20:34:49.471Z,101046.10
2022-11-24T20:37:19.200Z,101052.09
2022-11-24T20:39:50.662Z,101052.84
2022-11-24T20:42:21.336Z,101050.57
2022-11-24T20:44:51.008Z,101051.73
2022-11-24T20:47:20.801Z,101053.55
2022-11-24T20:49:50.670Z,101058.34
2022-11-24T20:52:20.412Z,101052.92
2022-11-24T20:54:50.097Z,101056.13
2022-11-24T20:57:19.762Z,101059.13
2022-11-24T20:59:50.458Z,101061.00
2022-11-24T21:02:21.200Z,101060.23
2022-11-24T21:04:50.841Z,101068.14
2022-11-24T21:07:20.543Z,101068.36
2022-11-24T21:09:50.350Z,101066.75
2022-11-24T21:12:20.331Z,101062.36
2022-11-24T21:14:50.068Z,101064.64
2022-11-24T21:17:19.834Z,101058.20
2022-11-24T21:19:49.608Z,101061.42
2022-11-24T21:22:19.323Z,101063.77
2022-11-24T21:24:49.110Z,101059.95
2022-11-24T21:27:18.832Z,101059.62
2022-11-24T21:29:48.548Z,101062.06
2022-11-24T21:32:18.284Z,101061.48
2022-11-24T21:34:48.084Z,101060.79
2022-11-24T21:37:16.572Z,101064.47
2022-11-24T21:39:45.698Z,101068.20
2022-11-24T21:42:15.322Z,101068.22
2022-11-24T21:44:44.994Z,101069.23
2022-11-24T21:47:12.163Z,101072.69
2022-11-24T21:49:39.357Z,101078.27
2022-11-24T21:52:08.025Z,101078.58
2022-11-24T21:54:36.667Z,101082.65
2022-11-24T21:57:05.107Z,101085.73
2022-11-24T21:59:33.388Z,101091.60
2022-11-24T22:02:01.773Z,101090.77
2022-11-24T22:04:30.395Z,101087.70
2022-11-24T22:06:58.738Z,101084.15
2022-11-24T22:09:27.185Z,101080.05
2022-11-24T22:11:55.647Z,101081.74
2022-11-24T22:14:23.904Z,101077.67
2022-11-24T22:16:52.292Z,101082.02
2022-11-24T22:19:20.874Z,101084.61
2022-11-24T22:21:49.693Z,101087.79
2022-11-24T22:24:18.425Z,101089.21
2022-11-24T22:26:50.538Z,101087.19
2022-11-24T22:29:20.670Z,101086.71
2022-11-24T22:31:50.606Z,101088.73
2022-11-24T22:34:20.650Z,101090.23
2022-11-24T22:36:50.346Z,101096.38
2022-11-24T22:39:20.042Z,101093.05
2022-11-24T22:41:49.846Z,101098.11
2022-11-24T22:44:23.724Z,101094.89
2022-11-24T22:46:52.856Z,101096.24
2022-11-24T22:49:23.618Z,101098.09
2022-11-24T22:51:53.556Z,101094.33
2022-11-24T22:54:23.295Z,101101.33
2022-11-24T22:56:53.286Z,101101.34
2022-11-24T22:59:23.029Z,101102.83
2022-11-24T23:01:52.932Z,101104.45
2022-11-24T23:04:23.171Z,101101.77
2022-11-24T23:06:52.990Z,101100.39
2022-11-24T23:09:22.756Z,101101.86
2022-11-24T23:11:52.483Z,101103.10
2022-11-24T23:14:22.295Z,101102.05
2022-11-24T23:16:49.288Z,101103.54
2022-11-24T23:19:16.587Z,101106.98
2022-11-24T23:21:46.362Z,101102.23
2022-11-24T23:24:16.497Z,101107.90
2022-11-24T23:26:46.323Z,101107.37
2022-11-24T23:29:16.308Z,101110.71
2022-11-24T23:31:46.227Z,101109.10
2022-11-24T23:34:16.139Z,101107.90
2022-11-24T23:36:46.133Z,101108.55
2022-11-24T23:39:16.358Z,101110.52
2022-11-24T23:41:45.644Z,101114.55
2022-11-24T23:44:15.684Z,101115.18
2022-11-24T23:46:45.459Z,101114.65
2022-11-24T23:49:18.571Z,101118.86
2022-11-24T23:51:45.707Z,101123.52
2022-11-24T23:54:38.329Z,101123.52
2022-11-24T23:57:08.149Z,101125.53
2022-11-24T23:59:34.886Z,101122.79
